DTTA/TUN METAR and TAF weather

Enter ICAO airport designator
Station Type Date Time Source
DTTA METAR 2021/03/06 01:00 UTC NOAA

DTTA 060100Z 18003KT 9999 FEW023 12/11 Q1019


Station Type Date Time Source
DTTA Decoded METAR 2021/03/06 01:00 UTC NOAA

Tunis-Carthage, Tunisia (DTTA) 36-50N 010-14E 4M
Mar 05, 2021 - 08:00 PM EST / 2021.03.06 0100 UTC
Wind: from the S (180 degrees) at 3 MPH (3 KT):0
Visibility: greater than 7 mile(s):0
Sky conditions: mostly clear
Temperature: 53 F (12 C)
Dew Point: 51 F (11 C)
Relative Humidity: 93%
Pressure (altimeter): 30.09 in. Hg (1019 hPa)
ob: DTTA 060100Z 18003KT 9999 FEW023 12/11 Q1019
cycle: 1

Station Type Date Time Source
DTTA TAF 2021/03/05 18:39 UTC NOAA

TAF DTTA 051700Z 0518/0618 36005KT 8000 SCT026 PROB30
TEMPO 0602/0608 3000 BR
BECMG 0613/0615 06010KT

Example: see airport list